»·PEaware :: N224CE KBUR-KLAS

N224CE :: KBUR-KLAS

FLIGHT INFORMATION

Flight Status: Arrived
Operator: Privately registered:
United States
More flights under this callsign
Pilot: Neil S. (31177)
Aircraft: CIRRUS SR-22
(SR22)
More flights by this aircraft type
Origin: KBUR Bob Hope-Burbank
United States
Destination: KLAS McCarran Intl
United States
More flights between these airports :: More routes between these airports
Route: +VNY3 DAG CRESO4
File this flight plan on PilotEdge
Remarks:
Altitude:
(Current/Filed)
13,000ft
Speed:
(Current/Filed)
150kts
Departed: 29-Sep-20 09:24 AM
Arrived: 29-Sep-20 10:48 AM
Distance/Time
Traveled:
194nm/1:24
Distance/Time
To Go:
Arrived

Flight Plot

Page will automatically refresh every two minutes.

Flight plan parsing failed; only flown route is shown


Map Options




Map Legend


Flown Route
Filed Route
Departure Airport
Arrival Airport
Navaid (VOR, NDB)
Fix

Horizontal Profiles

Position Reports

Time Latitude Longitude Heading Altitude Ground
Speed
29-Sep-20 09:10 34.200210 -118.358863 280 723ft 0kts
29-Sep-20 09:11 34.200210 -118.358863 280 723ft 0kts
29-Sep-20 09:12 34.200210 -118.358863 280 723ft 0kts
29-Sep-20 09:13 34.200210 -118.358863 280 723ft 0kts
29-Sep-20 09:14 34.200210 -118.358863 280 723ft 0kts
29-Sep-20 09:15 34.200210 -118.358863 280 723ft 0kts
29-Sep-20 09:16 34.200210 -118.358863 280 723ft 0kts
29-Sep-20 09:17 34.199834 -118.358870 127 722ft 6kts
29-Sep-20 09:18 34.201067 -118.358549 348 724ft 19kts
29-Sep-20 09:19 34.209779 -118.360919 348 750ft 27kts
29-Sep-20 09:20 34.210914 -118.361106 48 756ft 0kts
29-Sep-20 09:21 34.210982 -118.361131 332 757ft 5kts
29-Sep-20 09:22 34.211834 -118.361379 17 765ft 0kts
29-Sep-20 09:23 34.207619 -118.359260 168 749ft 89kts
29-Sep-20 09:24 34.178153 -118.366183 224 2170ft 115kts
29-Sep-20 09:25 34.154776 -118.394092 224 3659ft 116kts
29-Sep-20 09:26 34.159697 -118.421545 0 4965ft 118kts
29-Sep-20 09:27 34.193423 -118.420044 1 6163ft 120kts
29-Sep-20 09:28 34.227495 -118.414809 15 7242ft 124kts
29-Sep-20 09:29 34.261292 -118.403088 15 8311ft 126kts
29-Sep-20 09:30 34.294889 -118.391317 15 9262ft 128kts
29-Sep-20 09:31 34.330670 -118.378742 15 10168ft 130kts
29-Sep-20 09:32 34.367131 -118.365911 15 10993ft 132kts
29-Sep-20 09:33 34.404503 -118.352746 15 11750ft 134kts
29-Sep-20 09:34 34.442385 -118.339385 16 12442ft 135kts
29-Sep-20 09:35 34.474726 -118.314310 52 12939ft 146kts
29-Sep-20 09:36 34.502651 -118.270022 53 12947ft 163kts
29-Sep-20 09:37 34.531448 -118.224052 53 12967ft 165kts
29-Sep-20 09:38 34.560721 -118.177227 53 12980ft 166kts
29-Sep-20 09:39 34.590067 -118.130220 53 12981ft 167kts
29-Sep-20 09:40 34.619154 -118.083567 53 12981ft 167kts
29-Sep-20 09:41 34.635193 -118.029384 82 12980ft 166kts
29-Sep-20 09:42 34.641639 -117.970995 82 12975ft 166kts
29-Sep-20 09:43 34.647993 -117.912877 82 12971ft 166kts
29-Sep-20 09:44 34.654322 -117.854696 82 12967ft 166kts
29-Sep-20 09:45 34.660858 -117.794324 82 12968ft 166kts
29-Sep-20 09:46 34.671664 -117.734486 72 12974ft 166kts
29-Sep-20 09:47 34.686669 -117.676036 72 12980ft 166kts
29-Sep-20 09:48 34.701648 -117.617592 72 12987ft 166kts
29-Sep-20 09:49 34.716589 -117.559168 72 12991ft 166kts
29-Sep-20 09:50 34.731537 -117.500583 72 12990ft 166kts
29-Sep-20 09:51 34.746478 -117.441897 72 12990ft 166kts
29-Sep-20 09:52 34.761324 -117.383456 72 12990ft 166kts
29-Sep-20 09:53 34.776492 -117.323611 73 12989ft 166kts
29-Sep-20 09:54 34.791292 -117.265085 73 12983ft 166kts
29-Sep-20 09:55 34.806313 -117.205548 73 12976ft 167kts
29-Sep-20 09:56 34.821128 -117.146697 73 12967ft 170kts
29-Sep-20 09:57 34.836091 -117.087141 73 12989ft 169kts
29-Sep-20 09:58 34.850860 -117.028206 73 12988ft 171kts
29-Sep-20 09:59 34.865635 -116.969104 74 12983ft 170kts
29-Sep-20 10:00 34.880102 -116.911097 74 12981ft 169kts
29-Sep-20 10:01 34.894712 -116.852390 74 12981ft 169kts
29-Sep-20 10:02 34.909534 -116.792687 75 12982ft 169kts
29-Sep-20 10:03 34.924359 -116.732836 75 12982ft 169kts
29-Sep-20 10:04 34.939249 -116.672579 75 12982ft 170kts
29-Sep-20 10:05 34.953989 -116.612788 75 12982ft 171kts
29-Sep-20 10:06 34.973225 -116.554103 63 12984ft 174kts
29-Sep-20 10:07 34.998140 -116.498095 63 12986ft 175kts
29-Sep-20 10:08 35.023441 -116.441118 63 13007ft 176kts
29-Sep-20 10:09 35.048866 -116.383782 62 13011ft 178kts
29-Sep-20 10:11 35.074449 -116.326012 63 13010ft 178kts
29-Sep-20 10:12 35.100018 -116.268163 63 13010ft 178kts
29-Sep-20 10:13 35.125945 -116.209395 63 13007ft 178kts
29-Sep-20 10:14 35.152329 -116.149492 63 13008ft 178kts
29-Sep-20 10:15 35.178824 -116.089229 63 13008ft 178kts
29-Sep-20 10:16 35.205322 -116.028853 63 13008ft 178kts
29-Sep-20 10:17 35.231897 -115.968192 63 13008ft 178kts
29-Sep-20 10:18 35.257751 -115.909070 63 12956ft 180kts
29-Sep-20 10:19 35.285592 -115.845263 63 12009ft 198kts
29-Sep-20 10:20 35.314516 -115.781813 47 10896ft 193kts
29-Sep-20 10:21 35.353948 -115.729528 49 10000ft 187kts
29-Sep-20 10:22 35.391038 -115.680076 49 10014ft 174kts
29-Sep-20 10:23 35.427115 -115.631891 49 10017ft 173kts
29-Sep-20 10:24 35.463121 -115.583733 49 10018ft 173kts
29-Sep-20 10:25 35.499779 -115.534635 49 10018ft 173kts
29-Sep-20 10:25 35.530261 -115.493777 49 10018ft 173kts
29-Sep-20 10:27 35.571930 -115.437853 49 10018ft 173kts
29-Sep-20 10:28 35.608209 -115.389080 49 9767ft 179kts
29-Sep-20 10:28 35.638819 -115.347858 50 9137ft 179kts
29-Sep-20 10:29 35.675234 -115.298766 50 8376ft 176kts
29-Sep-20 10:31 35.715017 -115.245084 50 8012ft 156kts
29-Sep-20 10:31 35.741280 -115.209580 50 8018ft 155kts
29-Sep-20 10:32 35.772466 -115.167386 50 8015ft 155kts
29-Sep-20 10:34 35.826134 -115.151580 11 8013ft 160kts
29-Sep-20 10:34 35.864990 -115.139123 11 8009ft 156kts
29-Sep-20 10:35 35.911266 -115.123472 11 8010ft 159kts
29-Sep-20 10:36 35.957849 -115.107663 11 8007ft 160kts
29-Sep-20 10:37 36.004435 -115.091763 11 8005ft 161kts
29-Sep-20 10:38 36.050724 -115.075855 11 7879ft 167kts
29-Sep-20 10:39 36.102635 -115.058398 11 6815ft 180kts
29-Sep-20 10:40 36.152692 -115.041886 11 5705ft 155kts
29-Sep-20 10:41 36.191077 -115.038453 303 4541ft 116kts
29-Sep-20 10:42 36.203506 -115.075628 294 3650ft 116kts
29-Sep-20 10:43 36.176398 -115.109146 215 3172ft 145kts
29-Sep-20 10:44 36.141280 -115.131374 208 3202ft 110kts
29-Sep-20 10:45 36.115333 -115.147116 209 2660ft 91kts
29-Sep-20 10:46 36.092563 -115.160610 204 2113ft 57kts
29-Sep-20 10:47 36.089416 -115.163550 307 2131ft 0kts
29-Sep-20 10:48 36.091251 -115.163664 19 2127ft 10kts
29-Sep-20 10:49 36.095690 -115.161089 25 2109ft 21kts
29-Sep-20 10:50 36.100056 -115.159061 349 2095ft 0kts
29-Sep-20 10:51 36.100056 -115.159061 349 2095ft 0kts
29-Sep-20 10:52 36.100056 -115.159061 349 2095ft 0kts
29-Sep-20 10:53 36.100056 -115.159061 349 2095ft 0kts
29-Sep-20 10:54 36.100056 -115.159061 349 2095ft 0kts

Navigation Log

Ident Type
Flight plan parsing failed, navigation log unavailable